Time;durP1;ratioP1;P1;durP2;ratioP2;P2;SDS_P1;SDS_P2;PMS_P1;PMS_P2;Temp;Humidity;BMP_temperature;BMP_pressure;BME280_temperature;BME280_humidity;BME280_pressure;Samples;Min_cycle;Max_cycle;Signal;HPM_P1;HPM_P2
2021/11/29 00:02:25;;;;;;;7.72;3.92;;;-1.10;99.90;;;-3.24;100.00;99853.63;2566891;30;137881;-39
2021/11/29 00:04:53;;;;;;;8.30;4.38;;;-1.20;99.90;;;-3.22;100.00;99852.50;2567619;30;137092;-39
2021/11/29 00:07:20;;;;;;;12.77;4.95;;;-1.10;99.90;;;-3.21;100.00;99848.00;2568098;30;138362;-39
2021/11/29 00:09:48;;;;;;;8.15;5.10;;;-1.10;99.90;;;-3.18;100.00;99861.91;2567636;30;138435;-39
2021/11/29 00:12:15;;;;;;;8.23;4.50;;;-1.10;99.90;;;-3.12;100.00;99865.81;2568324;30;138237;-39
2021/11/29 00:14:43;;;;;;;8.13;5.10;;;-1.10;99.90;;;-3.06;100.00;99872.38;2568195;30;136846;-39
2021/11/29 00:17:11;;;;;;;10.00;5.40;;;-1.10;99.90;;;-3.04;100.00;99871.25;2567055;30;137967;-39
2021/11/29 00:19:38;;;;;;;9.82;4.70;;;-1.00;99.90;;;-3.02;100.00;99868.44;2568234;30;137564;-39
2021/11/29 00:22:06;;;;;;;10.45;5.68;;;-1.00;99.90;;;-2.93;100.00;99869.38;2568473;30;138388;-39
2021/11/29 00:24:34;;;;;;;8.52;5.50;;;-0.90;99.90;;;-2.85;100.00;99874.81;2567668;30;137662;-39
2021/11/29 00:28:10;;;;;;;11.55;5.68;;;-0.90;99.90;;;-2.79;100.00;99876.03;2568030;30;139034;-39
2021/11/29 00:30:39;;;;;;;9.15;5.20;;;-0.80;99.90;;;-2.78;100.00;99880.41;2567254;30;136901;-39
2021/11/29 00:33:08;;;;;;;10.93;5.72;;;-0.80;99.90;;;-2.76;100.00;99881.94;2566552;30;138668;-39
2021/11/29 00:35:37;;;;;;;8.18;5.55;;;-0.80;99.90;;;-2.74;100.00;99884.47;2567388;30;137429;-39
2021/11/29 00:38:06;;;;;;;8.30;5.38;;;-0.70;99.90;;;-2.78;100.00;99881.25;2567827;30;137608;-39
2021/11/29 00:40:36;;;;;;;10.00;5.72;;;-0.70;99.90;;;-2.73;100.00;99898.66;2567502;30;138433;-39
2021/11/29 00:43:03;;;;;;;9.95;5.75;;;-0.70;99.90;;;-2.73;100.00;99893.31;2568658;30;137974;-39
2021/11/29 00:45:31;;;;;;;9.48;5.57;;;-0.70;99.90;;;-2.76;100.00;99897.13;2568177;30;138287;-39
2021/11/29 00:47:59;;;;;;;;;;;-0.70;99.90;;;-2.76;100.00;99897.97;2567404;30;139177;-39
2021/11/29 00:50:27;;;;;;;9.13;5.15;;;-0.70;99.90;;;-2.74;100.00;99905.84;2568278;30;136952;-39
2021/11/29 00:52:54;;;;;;;9.60;5.30;;;-0.70;99.90;;;-2.66;100.00;99894.38;2568762;30;139258;-39
2021/11/29 00:55:23;;;;;;;9.40;5.30;;;-0.70;99.90;;;-2.71;100.00;99891.31;2569163;30;137308;-39
2021/11/29 00:57:51;;;;;;;8.68;5.00;;;-0.70;99.90;;;-2.79;100.00;99895.59;2567759;30;138235;-39
2021/11/29 01:00:21;;;;;;;11.43;5.93;;;-0.70;99.90;;;-2.82;100.00;99895.88;2568475;30;136916;-40
2021/11/29 01:02:49;;;;;;;7.45;4.57;;;-0.80;99.90;;;-2.89;100.00;99890.28;2568658;30;138173;-39
2021/11/29 01:05:17;;;;;;;9.82;5.15;;;-0.80;99.90;;;-2.83;100.00;99901.34;2568542;30;137437;-39
2021/11/29 01:07:48;;;;;;;10.60;5.57;;;-0.80;99.90;;;-2.82;100.00;99906.56;2567305;30;137388;-39
2021/11/29 01:10:18;;;;;;;10.40;5.63;;;-0.80;99.90;;;-2.82;100.00;99897.69;2567291;30;137410;-39
2021/11/29 01:12:49;;;;;;;9.63;5.68;;;-0.80;99.90;;;-2.80;100.00;99912.59;2568381;30;138264;-39
2021/11/29 01:15:21;;;;;;;10.68;5.53;;;-0.80;99.90;;;-2.81;100.00;99913.59;2567633;30;137344;-39
2021/11/29 01:17:49;;;;;;;10.00;5.88;;;-0.80;99.90;;;-2.81;100.00;99915.41;2567622;30;138339;-39
2021/11/29 01:20:20;;;;;;;7.90;5.10;;;-0.80;99.90;;;-2.82;100.00;99919.91;2567916;30;136898;-39
2021/11/29 01:22:50;;;;;;;6.90;4.70;;;-0.80;99.90;;;-2.86;100.00;99915.88;2569541;30;138292;-39
2021/11/29 01:25:18;;;;;;;10.73;5.15;;;-0.80;99.90;;;-2.86;100.00;99921.22;2567982;30;137347;-39
2021/11/29 01:27:45;;;;;;;9.82;6.47;;;-0.80;99.90;;;-2.88;100.00;99912.50;2567902;30;138167;-39
2021/11/29 01:30:13;;;;;;;10.68;5.07;;;-0.80;99.90;;;-2.92;100.00;99919.97;2566646;30;137331;-39
2021/11/29 01:32:41;;;;;;;11.38;5.22;;;-0.90;99.90;;;-2.85;100.00;99914.88;2568030;30;137536;-39
2021/11/29 01:35:11;;;;;;;10.48;5.15;;;-0.80;99.90;;;-2.73;100.00;99923.53;2569021;30;137548;-39
2021/11/29 01:37:39;;;;;;;9.27;5.47;;;-0.80;99.90;;;-2.71;100.00;99926.91;2566033;30;137447;-39
2021/11/29 01:40:09;;;;;;;10.20;5.30;;;-0.70;99.90;;;-2.75;100.00;99923.66;2569208;30;137468;-39
2021/11/29 01:42:37;;;;;;;10.43;5.07;;;-0.70;99.90;;;-2.75;100.00;99929.00;2568232;30;138484;-39
2021/11/29 01:45:05;;;;;;;9.77;5.60;;;-0.70;99.90;;;-2.69;100.00;99934.75;2567185;30;137454;-39
2021/11/29 01:47:33;;;;;;;10.85;5.28;;;-0.70;99.90;;;-2.72;100.00;99930.56;2567602;30;138997;-39
2021/11/29 01:50:00;;;;;;;9.45;5.68;;;-0.70;99.90;;;-2.75;100.00;99942.38;2567684;30;138256;-39
2021/11/29 01:52:28;;;;;;;9.30;5.18;;;-0.70;99.90;;;-2.77;100.00;99939.00;2567630;30;137385;-39
2021/11/29 01:54:55;;;;;;;8.82;4.63;;;-0.70;99.90;;;-2.85;100.00;99946.91;2567765;30;137829;-39
2021/11/29 01:57:23;;;;;;;11.43;5.05;;;-0.80;99.90;;;-2.79;100.00;99948.13;2568554;30;139047;-39
2021/11/29 02:00:18;;;;;;;10.10;5.40;;;-0.80;99.90;;;-2.74;100.00;99948.56;2568244;30;136946;-39
2021/11/29 02:02:52;;;;;;;8.43;4.47;;;-0.70;99.90;;;-2.72;100.00;99954.59;2567924;30;138268;-40
2021/11/29 02:05:21;;;;;;;9.32;4.93;;;-0.70;99.90;;;-2.71;100.00;99956.28;2564931;30;137388;-39
2021/11/29 02:07:49;;;;;;;10.10;5.10;;;-0.70;99.90;;;-2.64;100.00;99948.53;2568561;30;138272;-39
2021/11/29 02:10:21;;;;;;;10.70;5.05;;;-0.70;99.90;;;-2.65;100.00;99952.19;2566534;30;137601;-39
2021/11/29 02:12:50;;;;;;;8.48;4.90;;;-0.70;99.90;;;-2.67;100.00;99948.78;2566737;30;139151;-39
2021/11/29 02:15:19;;;;;;;7.97;4.60;;;-0.70;99.90;;;-2.70;100.00;99957.09;2569240;30;136764;-39
2021/11/29 02:17:48;;;;;;;8.85;4.80;;;-0.70;99.90;;;-2.71;100.00;99958.09;2568818;30;137693;-40
2021/11/29 02:20:18;;;;;;;10.07;5.00;;;-0.70;99.90;;;-2.66;100.00;99962.00;2568544;30;137543;-39
2021/11/29 02:22:47;;;;;;;9.77;4.63;;;-0.70;99.90;;;-2.66;100.00;99962.00;2568589;30;138207;-39
2021/11/29 02:25:19;;;;;;;8.43;4.60;;;-0.70;99.90;;;-2.69;100.00;99956.97;2567910;30;137291;-39
2021/11/29 02:27:51;;;;;;;7.97;4.63;;;-0.70;99.90;;;-2.66;100.00;99967.34;2568042;30;137799;-39
2021/11/29 02:30:24;;;;;;;9.07;5.05;;;-0.70;99.90;;;-2.68;100.00;99963.97;2567348;30;137269;-39
2021/11/29 02:32:53;;;;;;;7.45;4.30;;;-0.70;99.90;;;-2.68;100.00;99960.47;2568249;30;139167;-39
2021/11/29 02:35:21;;;;;;;10.98;4.68;;;-0.70;99.90;;;-2.64;100.00;99953.88;2567442;30;138412;-39
2021/11/29 02:37:51;;;;;;;11.60;4.97;;;-0.60;99.90;;;-2.64;100.00;99962.69;2567051;30;138514;-39
2021/11/29 02:40:18;;;;;;;9.55;5.00;;;-0.60;99.90;;;-2.62;100.00;99967.91;2565256;30;138603;-39
2021/11/29 02:42:46;;;;;;;7.65;4.20;;;-0.60;99.90;;;-2.62;100.00;99959.91;2567153;30;137984;-39
2021/11/29 02:45:17;;;;;;;12.35;5.15;;;-0.60;99.90;;;-2.64;100.00;99964.53;2568059;30;138532;-39
2021/11/29 02:47:44;;;;;;;7.97;4.28;;;-0.60;99.90;;;-2.63;100.00;99960.88;2567852;30;138150;-39
2021/11/29 02:50:12;;;;;;;7.82;4.35;;;-0.60;99.90;;;-2.65;100.00;99966.34;2567458;30;137356;-39
2021/11/29 02:52:40;;;;;;;9.18;4.70;;;-0.60;99.90;;;-2.65;100.00;99965.53;2567850;30;137953;-39
2021/11/29 02:55:09;;;;;;;6.32;3.55;;;-0.60;99.90;;;-2.65;100.00;99961.03;2567097;30;137604;-39
2021/11/29 02:57:36;;;;;;;10.57;4.35;;;-0.60;99.90;;;-2.66;100.00;99970.03;2568843;30;137326;-39
2021/11/29 03:00:07;;;;;;;7.57;4.40;;;-0.60;99.90;;;-2.72;100.00;99967.09;2567816;30;137582;-39
2021/11/29 03:02:35;;;;;;;6.72;3.75;;;-0.70;99.90;;;-2.77;100.00;99959.53;2568973;30;138949;-39
2021/11/29 03:05:09;;;;;;;8.13;3.80;;;-0.70;99.90;;;-2.72;100.00;99961.75;2567651;30;136843;-39
2021/11/29 03:07:38;;;;;;;6.80;3.63;;;-0.70;99.90;;;-2.72;100.00;99967.09;2579668;30;139066;-38
2021/11/29 03:10:06;;;;;;;6.18;3.60;;;-0.70;99.90;;;-2.71;100.00;99963.44;2567901;30;138420;-38
2021/11/29 03:12:34;;;;;;;6.43;3.67;;;-0.70;99.90;;;-2.62;100.00;99967.91;2569100;30;138404;-39
2021/11/29 03:15:02;;;;;;;7.18;3.78;;;-0.60;99.90;;;-2.71;100.00;99958.09;2571391;30;137854;-39
2021/11/29 03:17:29;;;;;;;;;;;-0.60;99.90;;;-2.55;100.00;99962.78;2570181;30;138622;-40
2021/11/29 03:19:56;;;;;;;6.00;3.10;;;-0.60;99.90;;;-2.56;100.00;99966.44;2570471;30;137119;-38
2021/11/29 03:22:24;;;;;;;7.20;3.50;;;-0.60;99.90;;;-2.55;100.00;99966.31;2565462;30;137406;-38
2021/11/29 03:24:52;;;;;;;6.22;3.35;;;-0.60;99.90;;;-2.52;100.00;99966.00;2571858;30;137547;-38
2021/11/29 03:27:19;;;;;;;6.18;3.40;;;-0.50;99.90;;;-2.48;100.00;99967.41;2571186;30;138171;-38
2021/11/29 03:29:49;;;;;;;7.47;3.70;;;-0.50;99.90;;;-2.48;100.00;99978.09;2570598;30;137608;-38
2021/11/29 03:32:19;;;;;;;8.85;3.53;;;-0.50;99.90;;;-2.52;100.00;99975.84;2569451;30;139519;-38
2021/11/29 03:34:47;;;;;;;7.70;3.13;;;-0.50;99.90;;;-2.55;100.00;99982.34;2570289;30;136727;-38
2021/11/29 03:37:18;;;;;;;6.63;3.58;;;-0.50;99.90;;;-2.59;100.00;99986.31;2571199;30;138427;-38
2021/11/29 03:39:46;;;;;;;6.82;3.00;;;-0.60;99.90;;;-2.64;100.00;99991.25;2567719;30;137211;-38
2021/11/29 03:42:14;;;;;;;8.45;3.08;;;-0.60;99.90;;;-2.66;100.00;99991.38;2570505;30;139004;-39
2021/11/29 03:44:45;;;;;;;7.03;3.10;;;-0.60;99.90;;;-2.72;100.00;99989.31;2570337;30;137065;-38
2021/11/29 03:47:13;;;;;;;4.75;3.03;;;-0.70;99.90;;;-2.67;100.00;99999.53;2571398;30;137846;-39
2021/11/29 03:49:41;;;;;;;4.40;2.80;;;-0.70;99.90;;;-2.69;100.00;99994.34;2568682;30;136789;-38
2021/11/29 03:52:08;;;;;;;6.82;3.28;;;-0.70;99.90;;;-2.66;100.00;99998.53;2570048;30;138314;-38
2021/11/29 03:54:36;;;;;;;5.18;3.05;;;-0.70;99.90;;;-2.64;100.00;100004.59;2571183;30;137689;-37
2021/11/29 03:57:04;;;;;;;5.43;3.08;;;-0.70;99.90;;;-2.61;100.00;100007.81;2571173;30;138398;-38
2021/11/29 03:59:31;;;;;;;;;;;-0.60;99.90;;;-2.60;100.00;100008.66;2570291;30;137473;-38
2021/11/29 04:01:59;;;;;;;5.47;2.88;;;-0.60;99.90;;;-2.53;100.00;100015.09;2568918;30;139098;-39
2021/11/29 04:04:26;;;;;;;6.30;2.88;;;-0.60;99.90;;;-2.47;100.00;100014.50;2571350;30;137495;-38
2021/11/29 04:06:54;;;;;;;5.72;3.10;;;-0.50;99.90;;;-2.49;100.00;100008.47;2570274;30;138095;-38
2021/11/29 04:09:21;;;;;;;5.95;2.90;;;-0.50;99.90;;;-2.54;100.00;100002.72;2571810;30;137549;-40
2021/11/29 04:11:49;;;;;;;4.65;2.90;;;-0.50;99.90;;;-2.48;100.00;100012.81;2570610;30;138200;-39
2021/11/29 04:14:17;;;;;;;6.05;3.13;;;-0.50;99.90;;;-2.37;100.00;100011.78;2570822;30;137385;-35
2021/11/29 04:16:44;;;;;;;6.75;2.80;;;-0.50;99.90;;;-2.37;100.00;100011.78;2569821;30;138235;-39
2021/11/29 04:19:11;;;;;;;7.43;3.20;;;-0.40;99.90;;;-2.29;100.00;100016.38;2570024;30;137583;-39
2021/11/29 04:21:39;;;;;;;8.13;3.08;;;-0.40;99.90;;;-2.21;100.00;100019.16;2570125;30;138178;-38
2021/11/29 04:24:07;;;;;;;4.88;2.78;;;-0.30;99.90;;;-2.16;100.00;100016.03;2570059;30;138304;-38
2021/11/29 04:26:37;;;;;;;5.50;2.95;;;-0.30;99.90;;;-2.03;100.00;100018.34;2567605;30;138872;-38
2021/11/29 04:29:16;;;;;;;5.47;2.95;;;-0.10;99.90;;;-2.03;100.00;100019.19;2570743;30;137000;-39
2021/11/29 04:31:44;;;;;;;5.65;2.80;;;-0.10;99.90;;;-2.08;100.00;100021.47;2571336;30;138628;-38
2021/11/29 04:34:12;;;;;;;7.57;2.58;;;-0.10;99.90;;;-2.09;100.00;100022.47;2569464;30;137708;-43
2021/11/29 04:36:39;;;;;;;;;;;-0.10;99.90;;;-2.11;100.00;100028.97;2567740;30;138878;-39
2021/11/29 04:39:07;;;;;;;6.30;2.90;;;-0.10;99.90;;;-2.12;100.00;100032.59;2573200;30;137750;-40
2021/11/29 04:41:35;;;;;;;5.72;2.58;;;-0.20;99.90;;;-2.05;100.00;100037.22;2571826;30;138241;-38
2021/11/29 04:44:02;;;;;;;4.82;2.75;;;-0.10;99.90;;;-2.06;100.00;100038.19;2570610;30;137731;-38
2021/11/29 04:46:30;;;;;;;5.45;2.50;;;-0.10;99.90;;;-2.01;100.00;100051.13;2568200;30;138935;-39
2021/11/29 04:48:58;;;;;;;5.15;2.55;;;-0.10;99.90;;;-1.93;100.00;100050.38;2570551;30;137552;-39
2021/11/29 04:51:26;;;;;;;4.43;2.67;;;-0.10;99.90;;;-1.86;100.00;100053.28;2568565;30;138355;-38
2021/11/29 04:53:53;;;;;;;;;;;0.00;99.90;;;-1.85;100.00;100052.31;2569992;30;137036;-38
2021/11/29 04:56:21;;;;;;;4.50;2.50;;;0.10;99.90;;;-1.81;100.00;100057.19;2572352;30;138133;-39
2021/11/29 04:58:49;;;;;;;;;;;0.10;99.90;;;-1.80;100.00;100056.19;2571384;30;138312;-38
2021/11/29 05:01:17;;;;;;;4.70;2.50;;;0.10;99.90;;;-1.84;100.00;100046.81;2569969;30;137161;-38
2021/11/29 05:03:45;;;;;;;;;;;0.10;99.90;;;-1.78;100.00;100061.41;2572478;30;137439;-38
2021/11/29 05:06:13;;;;;;;6.38;2.85;;;0.10;99.90;;;-1.82;100.00;100054.69;2571125;30;138219;-38
2021/11/29 05:08:41;;;;;;;;;;;0.10;99.90;;;-1.82;100.00;100060.03;2570604;30;138336;-38
2021/11/29 05:11:08;;;;;;;5.50;2.67;;;0.10;99.90;;;-1.84;100.00;100057.50;2570865;30;138363;-39
2021/11/29 05:13:36;;;;;;;5.22;2.70;;;0.10;99.90;;;-1.79;100.00;100065.09;2570760;30;137104;-39
2021/11/29 05:16:05;;;;;;;5.78;2.90;;;0.10;99.90;;;-1.78;100.00;100064.09;2568463;30;138206;-39
2021/11/29 05:18:33;;;;;;;5.35;2.80;;;0.10;99.90;;;-1.75;100.00;100063.78;2568992;30;137398;-39
2021/11/29 05:21:00;;;;;;;;;;;0.10;99.90;;;-1.67;100.00;100052.34;2572342;30;138490;-39
2021/11/29 05:23:28;;;;;;;5.30;2.50;;;0.20;99.90;;;-1.61;100.00;100059.75;2571081;30;137303;-38
2021/11/29 05:25:56;;;;;;;7.50;3.08;;;0.30;99.90;;;-1.61;100.00;100071.28;2570225;30;139877;-39
2021/11/29 05:28:24;;;;;;;5.35;3.03;;;0.30;99.90;;;-1.49;100.00;100068.41;2571224;30;137564;-38
2021/11/29 05:30:51;;;;;;;6.63;2.72;;;0.30;99.90;;;-1.40;100.00;100072.00;2570038;30;138431;-40
2021/11/29 05:33:19;;;;;;;3.83;2.40;;;0.40;99.90;;;-1.37;100.00;100069.00;2569249;30;136748;-38
2021/11/29 05:35:46;;;;;;;4.95;2.90;;;0.50;99.90;;;-1.32;100.00;100070.25;2570290;30;138276;-38
2021/11/29 05:38:14;;;;;;;4.93;3.00;;;0.50;99.90;;;-1.33;100.00;100071.25;2571165;30;136920;-38
2021/11/29 05:40:42;;;;;;;4.82;2.72;;;0.50;99.90;;;-1.29;100.00;100065.56;2568564;30;137223;-38
2021/11/29 05:43:09;;;;;;;4.55;3.00;;;0.60;99.90;;;-1.22;100.00;100088.03;2570690;30;137569;-39
2021/11/29 05:45:39;;;;;;;4.45;2.90;;;0.60;99.90;;;-1.17;100.00;100091.09;2571342;30;137502;-38
2021/11/29 05:48:07;;;;;;;6.28;2.88;;;0.60;99.90;;;-1.17;100.00;100093.78;2572740;30;137333;-38
2021/11/29 05:50:35;;;;;;;5.13;3.00;;;0.70;99.90;;;-1.16;100.00;100096.31;2571645;30;138266;-38
2021/11/29 05:53:03;;;;;;;5.15;2.53;;;0.70;99.90;;;-1.13;100.00;100099.69;2568082;30;137387;-39
2021/11/29 05:55:31;;;;;;;;;;;0.70;99.90;;;-1.13;100.00;100113.88;2570600;30;137213;-39
2021/11/29 05:57:59;;;;;;;5.70;3.08;;;0.70;99.90;;;-1.11;100.00;100121.78;2572208;30;137004;-39
2021/11/29 06:00:27;;;;;;;5.68;2.53;;;0.70;99.90;;;-1.08;100.00;100121.47;2569956;30;138883;-38
2021/11/29 06:02:55;;;;;;;5.00;3.00;;;0.80;99.90;;;-1.09;100.00;100119.78;2569152;30;137600;-38
2021/11/29 06:05:24;;;;;;;4.43;2.50;;;0.80;99.90;;;-1.08;100.00;100124.97;2570853;30;138105;-38
2021/11/29 06:07:52;;;;;;;4.53;2.65;;;0.80;99.90;;;-1.08;100.00;100122.28;2574545;30;137578;-40
2021/11/29 06:10:20;;;;;;;6.47;3.00;;;0.80;99.90;;;-1.06;100.00;100132.88;2572416;30;136884;-39
2021/11/29 06:12:47;;;;;;;5.70;3.08;;;0.80;99.90;;;-1.08;100.00;100129.50;2569841;30;137730;-41
2021/11/29 06:15:16;;;;;;;8.15;2.97;;;0.80;99.90;;;-1.05;100.00;100140.75;2569202;30;137468;-39
2021/11/29 06:17:45;;;;;;;3.85;2.78;;;0.80;99.90;;;-0.99;100.00;100117.84;2570379;30;137492;-39
2021/11/29 06:20:19;;;;;;;5.07;2.70;;;0.90;99.90;;;-0.94;100.00;100126.25;2567524;30;138348;-39
2021/11/29 06:22:51;;;;;;;4.72;2.85;;;0.90;99.90;;;-0.93;100.00;100129.81;2568517;30;136875;-38
2021/11/29 06:25:21;;;;;;;5.65;2.85;;;0.90;99.90;;;-0.93;100.00;100129.81;2568516;30;139382;-38
2021/11/29 06:27:50;;;;;;;6.38;2.92;;;0.90;99.90;;;-0.92;100.00;100124.31;2571491;30;138314;-38
2021/11/29 06:30:19;;;;;;;4.55;2.67;;;0.90;99.90;;;-0.91;100.00;100127.81;2570163;30;138348;-39
2021/11/29 06:32:48;;;;;;;5.57;2.95;;;0.90;99.90;;;-0.92;100.00;100126.97;2569290;30;137316;-41
2021/11/29 06:35:16;;;;;;;6.78;3.40;;;0.90;99.90;;;-0.88;100.00;100132.84;2570501;30;139116;-38
2021/11/29 06:37:54;;;;;;;4.50;2.92;;;1.00;99.90;;;-0.89;100.00;100136.53;2571550;30;137446;-38
2021/11/29 06:40:23;;;;;;;5.43;3.15;;;0.90;99.90;;;-0.79;100.00;100136.44;2569556;30;138199;-39
2021/11/29 06:42:50;;;;;;;5.25;3.13;;;1.00;99.90;;;-0.77;100.00;100131.75;2568785;30;137477;-38
2021/11/29 06:45:19;;;;;;;6.07;2.90;;;1.10;99.90;;;-0.75;100.00;100129.78;2567272;30;139061;-38
2021/11/29 06:47:49;;;;;;;5.90;2.70;;;1.10;99.90;;;-0.70;100.00;100138.19;2571186;30;137510;-39
2021/11/29 06:50:18;;;;;;;8.43;3.28;;;1.10;99.90;;;-0.64;100.00;100134.91;2568826;30;138947;-38
2021/11/29 06:52:46;;;;;;;6.72;3.15;;;1.20;99.90;;;-0.68;100.00;100143.41;2568796;30;137444;-39
2021/11/29 06:55:18;;;;;;;;;;;1.20;99.90;;;-0.65;100.00;100143.06;2569027;30;138988;-39
2021/11/29 06:57:46;;;;;;;4.35;2.67;;;1.20;99.90;;;-0.65;100.00;100149.28;2567364;30;137138;-38
2021/11/29 07:00:16;;;;;;;;;;;1.20;99.90;;;-0.56;100.00;100147.50;2568258;30;138573;-38
2021/11/29 07:02:44;;;;;;;5.05;2.40;;;1.20;99.90;;;-0.57;100.00;100150.34;2569153;30;137201;-38
2021/11/29 07:05:13;;;;;;;5.15;2.97;;;1.30;99.90;;;-0.57;100.00;100151.16;2566847;30;139572;-38
2021/11/29 07:07:42;;;;;;;5.95;3.03;;;1.30;99.90;;;-0.61;100.00;100152.47;2569448;30;138655;-38
2021/11/29 07:10:10;;;;;;;7.25;2.92;;;1.30;99.90;;;-0.54;100.00;100156.22;2568085;30;138475;-38
2021/11/29 07:12:42;;;;;;;5.28;3.10;;;1.30;99.90;;;-0.55;100.00;100157.22;2569861;30;138142;-38
2021/11/29 07:15:11;;;;;;;;;;;1.30;99.90;;;-0.57;100.00;100159.22;2569988;30;138743;-39
2021/11/29 07:17:39;;;;;;;6.55;2.95;;;1.30;99.90;;;-0.57;100.00;100153.84;2570790;30;136778;-39
2021/11/29 07:20:08;;;;;;;;;;;1.30;99.90;;;-0.52;100.00;100158.75;2569470;30;137330;-39
2021/11/29 07:22:36;;;;;;;7.15;3.17;;;1.30;99.90;;;-0.52;100.00;100154.25;2573997;30;137235;-38
2021/11/29 07:25:05;;;;;;;6.80;2.75;;;1.30;99.90;;;-0.50;100.00;100156.75;2571522;30;139053;-38
2021/11/29 07:27:34;;;;;;;6.13;2.92;;;1.30;99.90;;;-0.42;100.00;100164.03;2570159;30;138199;-38
2021/11/29 07:30:07;;;;;;;6.97;3.28;;;1.40;99.90;;;-0.48;100.00;100165.47;2568980;30;137743;-39
2021/11/29 07:32:35;;;;;;;6.15;3.03;;;1.40;99.90;;;-0.49;100.00;100164.66;2567273;30;137510;-40
2021/11/29 07:35:03;;;;;;;;;;;1.30;99.90;;;-0.44;100.00;100165.03;2570937;30;137297;-40
2021/11/29 07:37:31;;;;;;;4.47;2.72;;;1.40;99.90;;;-0.50;100.00;100173.69;2571773;30;136951;-42
2021/11/29 07:39:59;;;;;;;8.45;3.15;;;1.40;99.90;;;-0.52;100.00;100174.84;2569750;30;138950;-40
2021/11/29 07:42:26;;;;;;;6.07;3.20;;;1.30;99.90;;;-0.52;100.00;100174.84;2570051;30;137019;-40
2021/11/29 07:44:55;;;;;;;7.18;3.13;;;1.30;99.90;;;-0.50;100.00;100178.19;2570739;30;137148;-40
2021/11/29 07:47:24;;;;;;;6.53;2.95;;;1.30;99.90;;;-0.47;100.00;100183.25;2568713;30;137304;-40
2021/11/29 07:49:53;;;;;;;6.03;3.33;;;1.40;99.90;;;-0.49;100.00;100194.13;2568567;30;139129;-39
2021/11/29 07:52:21;;;;;;;4.75;2.60;;;1.40;99.90;;;-0.42;100.00;100190.81;2569203;30;136820;-38
2021/11/29 07:54:49;;;;;;;;;;;1.40;99.90;;;-0.46;100.00;100195.63;2567976;30;139362;-38
2021/11/29 07:57:17;;;;;;;4.63;2.72;;;1.40;99.90;;;-0.46;100.00;100190.28;2568531;30;137974;-38
2021/11/29 07:59:46;;;;;;;5.05;2.80;;;1.40;99.90;;;-0.50;100.00;100197.81;2569797;30;138283;-39
2021/11/29 08:02:18;;;;;;;5.00;2.92;;;1.40;99.90;;;-0.54;100.00;100204.44;2568832;30;136848;-38
2021/11/29 08:04:47;;;;;;;5.28;2.90;;;1.30;99.90;;;-0.54;100.00;100192.91;2568502;30;139136;-38
2021/11/29 08:07:16;;;;;;;5.53;2.83;;;1.30;99.90;;;-0.51;100.00;100198.81;2570269;30;137333;-38
2021/11/29 08:09:44;;;;;;;6.10;3.05;;;1.30;99.90;;;-0.52;100.00;100194.44;2570425;30;139775;-38
2021/11/29 08:12:12;;;;;;;7.75;3.47;;;1.30;99.90;;;-0.47;100.00;100204.69;2568818;30;137809;-38
2021/11/29 08:14:40;;;;;;;4.43;2.58;;;1.30;99.90;;;-0.46;100.00;100204.53;2567853;30;137488;-38
2021/11/29 08:17:08;;;;;;;7.10;2.80;;;1.30;99.90;;;-0.41;100.00;100201.38;2566924;30;136866;-38
2021/11/29 08:19:36;;;;;;;;;;;1.40;99.90;;;-0.38;100.00;100208.28;2567456;30;139394;-38
2021/11/29 08:22:03;;;;;;;6.43;2.95;;;1.40;99.90;;;-0.36;100.00;100209.81;2568019;30;136822;-38
2021/11/29 08:24:31;;;;;;;7.50;2.67;;;1.40;99.90;;;-0.33;100.00;100220.22;2567759;30;137372;-38
2021/11/29 08:26:59;;;;;;;5.28;2.75;;;1.50;99.90;;;-0.27;100.00;100220.59;2570870;30;138257;-38
2021/11/29 08:29:26;;;;;;;5.13;2.75;;;1.50;99.90;;;-0.24;100.00;100220.28;2568326;30;139071;-39
2021/11/29 08:31:54;;;;;;;6.38;3.25;;;1.60;99.90;;;-0.21;100.00;100225.31;2570860;30;137312;-39
2021/11/29 08:34:21;;;;;;;8.32;2.95;;;1.60;99.90;;;-0.16;100.00;100231.03;2569614;30;137729;-37
2021/11/29 08:36:49;;;;;;;4.93;2.95;;;1.70;99.90;;;-0.11;100.00;100234.13;2572159;30;138336;-38
2021/11/29 08:39:17;;;;;;;5.20;2.95;;;1.70;99.90;;;-0.07;100.00;100231.94;2569316;30;138405;-39
2021/11/29 08:41:45;;;;;;;5.75;2.72;;;1.70;99.90;;;-0.04;100.00;100231.63;2569505;30;138203;-38
2021/11/29 08:44:12;;;;;;;5.22;2.90;;;1.70;99.90;;;-0.03;100.00;100238.69;2568683;30;139211;-38
2021/11/29 08:46:48;;;;;;;6.75;2.90;;;1.70;99.90;;;-0.04;100.00;100240.53;2568029;30;137610;-38
2021/11/29 08:49:18;;;;;;;4.65;2.75;;;1.80;99.90;;;-0.02;100.00;100241.22;2567064;30;138622;-38
2021/11/29 08:51:47;;;;;;;4.68;2.97;;;1.80;99.90;;;-0.01;100.00;100242.03;2569562;30;137735;-38
2021/11/29 08:54:16;;;;;;;5.57;2.67;;;1.80;99.90;;;-0.01;100.00;100247.41;2571684;30;138272;-39
2021/11/29 08:56:46;;;;;;;5.72;2.92;;;1.80;99.90;;;0.05;100.00;100241.44;2571549;30;138119;-38
2021/11/29 08:59:21;;;;;;;5.65;2.85;;;1.80;99.90;;;0.09;100.00;100248.16;2568157;30;138331;-38
2021/11/29 09:01:51;;;;;;;9.32;3.38;;;1.90;99.90;;;0.14;100.00;100251.22;2569451;30;137355;-38
2021/11/29 09:04:20;;;;;;;5.30;2.80;;;1.90;99.90;;;0.11;100.00;100237.25;2569128;30;138734;-36
2021/11/29 09:06:48;;;;;;;4.72;2.97;;;1.90;99.90;;;0.24;100.00;100255.59;2570742;30;137313;-38
2021/11/29 09:09:16;;;;;;;5.40;3.10;;;2.00;99.90;;;0.24;100.00;100259.16;2575205;30;137349;-39
2021/11/29 09:11:43;;;;;;;;;;;2.00;99.90;;;0.29;100.00;100264.06;2566198;30;137325;-39
2021/11/29 09:14:11;;;;;;;6.03;2.95;;;2.10;99.90;;;0.30;100.00;100265.72;2569075;30;138286;-39
2021/11/29 09:16:39;;;;;;;6.72;3.60;;;2.10;99.90;;;0.37;100.00;100271.28;2565332;30;136721;-39
2021/11/29 09:19:07;;;;;;;8.20;3.55;;;2.10;99.90;;;0.33;100.00;100261.88;2568218;30;139043;-39
2021/11/29 09:21:35;;;;;;;8.00;3.42;;;2.10;99.90;;;0.40;100.00;100274.50;2566422;30;137682;-40
2021/11/29 09:24:02;;;;;;;;;;;2.20;99.90;;;0.45;100.00;100279.41;2568354;30;138450;-40
2021/11/29 09:26:30;;;;;;;6.55;3.10;;;2.20;99.90;;;0.46;100.00;100273.03;2566404;30;137447;-39
2021/11/29 09:28:59;;;;;;;8.77;3.60;;;2.20;99.90;;;0.54;100.00;100282.97;2568082;30;139257;-39
2021/11/29 09:31:27;;;;;;;7.85;4.13;;;2.30;99.90;;;0.59;100.00;100286.00;2565376;30;137093;-39
2021/11/29 09:33:54;;;;;;;9.23;4.03;;;2.30;99.90;;;0.62;100.00;100287.50;2566001;30;137095;-39
2021/11/29 09:36:22;;;;;;;8.40;3.58;;;2.40;99.90;;;0.65;100.00;100296.09;2568705;30;137219;-39
2021/11/29 09:38:50;;;;;;;9.57;4.22;;;2.40;99.90;;;0.65;100.00;100300.63;2567357;30;139318;-39
2021/11/29 09:41:21;;;;;;;;;;;2.40;99.90;;;0.66;100.00;100303.16;2566332;30;137799;-40
2021/11/29 09:43:48;;;;;;;9.52;3.13;;;2.40;99.90;;;0.58;100.00;100303.13;2568690;30;138175;-39
2021/11/29 09:46:16;;;;;;;6.13;3.67;;;2.40;99.90;;;0.61;100.00;100310.00;2566306;30;137828;-39
2021/11/29 09:48:44;;;;;;;9.40;3.50;;;2.40;99.90;;;0.64;100.00;100312.38;2568735;30;139108;-39
2021/11/29 09:51:35;;;;;;;7.00;3.95;;;2.40;99.90;;;0.63;100.00;100324.09;2569474;30;136887;-39
2021/11/29 09:54:07;;;;;;;6.75;3.50;;;2.40;99.90;;;0.62;100.00;100320.59;2568428;30;138155;-39
2021/11/29 09:56:38;;;;;;;12.95;3.65;;;2.40;99.90;;;0.63;100.00;100322.28;2568106;30;137598;-39
2021/11/29 09:59:06;;;;;;;9.02;3.65;;;2.40;99.90;;;0.64;100.00;100328.47;2566812;30;138657;-39
2021/11/29 10:01:34;;;;;;;;;;;2.40;99.90;;;0.63;100.00;100324.97;2566641;30;136917;-39
2021/11/29 10:04:04;;;;;;;;;;;2.40;99.90;;;0.59;100.00;100322.75;2569553;30;138260;-39
2021/11/29 10:06:32;;;;;;;7.10;3.78;;;2.40;99.90;;;0.61;100.00;100331.47;2568397;30;137109;-39
2021/11/29 10:09:02;;;;;;;7.53;4.18;;;2.40;99.90;;;0.61;100.00;100329.66;2568517;30;136784;-40
2021/11/29 10:11:30;;;;;;;8.00;4.00;;;2.40;99.90;;;0.68;100.00;100330.69;2567505;30;136893;-39
2021/11/29 10:14:05;;;;;;;10.85;4.22;;;2.40;99.90;;;0.73;100.00;100330.22;2566837;30;139132;-40
2021/11/29 10:16:46;;;;;;;8.07;4.45;;;2.40;99.90;;;0.73;100.00;100337.41;2567854;30;136886;-39
2021/11/29 10:19:19;;;;;;;8.68;4.25;;;2.50;99.90;;;0.79;100.00;100326.88;2568699;30;138927;-39